createdAt,value
2022-09-25T00:00:37.848Z,12.80
2022-09-25T00:02:39.681Z,12.80
2022-09-25T00:04:41.729Z,12.80
2022-09-25T00:06:43.391Z,12.70
2022-09-25T00:08:45.446Z,12.70
2022-09-25T00:10:48.212Z,12.70
2022-09-25T00:12:49.908Z,12.70
2022-09-25T00:14:52.114Z,12.70
2022-09-25T00:16:53.838Z,12.60
2022-09-25T00:19:14.801Z,12.50
2022-09-25T00:21:17.678Z,12.50
2022-09-25T00:23:19.255Z,12.50
2022-09-25T00:25:21.171Z,12.40
2022-09-25T00:27:22.825Z,12.50
2022-09-25T00:29:24.467Z,12.40
2022-09-25T00:31:26.199Z,12.40
2022-09-25T00:33:28.535Z,12.30
2022-09-25T00:35:30.205Z,12.30
2022-09-25T00:37:35.464Z,12.30
2022-09-25T00:39:37.148Z,12.30
2022-09-25T00:41:38.872Z,12.20
2022-09-25T00:43:40.499Z,12.20
2022-09-25T00:45:43.515Z,12.20
2022-09-25T00:48:00.020Z,12.10
2022-09-25T00:50:02.587Z,12.10
2022-09-25T00:52:06.624Z,12.00
2022-09-25T00:54:10.984Z,12.00
2022-09-25T00:56:13.339Z,12.00
2022-09-25T00:58:16.962Z,12.00
2022-09-25T01:00:18.604Z,12.00
2022-09-25T01:02:25.571Z,11.90
2022-09-25T01:04:28.780Z,11.90
2022-09-25T01:06:31.421Z,11.90
2022-09-25T01:08:33.351Z,12.00
2022-09-25T01:10:35.896Z,12.10
2022-09-25T01:12:39.768Z,12.20
2022-09-25T01:14:41.689Z,12.20
2022-09-25T01:16:43.290Z,12.30
2022-09-25T01:19:03.657Z,12.40
2022-09-25T01:21:13.434Z,12.30
2022-09-25T01:23:39.561Z,12.40
2022-09-25T01:26:00.542Z,12.40
2022-09-25T01:28:32.076Z,12.30
2022-09-25T01:30:36.916Z,12.30
2022-09-25T01:32:38.560Z,12.30
2022-09-25T01:34:59.505Z,12.30
2022-09-25T01:37:08.592Z,12.20
2022-09-25T01:39:25.830Z,12.30
2022-09-25T01:41:29.543Z,12.30
2022-09-25T01:43:43.205Z,12.30
2022-09-25T01:45:53.346Z,12.20
2022-09-25T01:47:57.150Z,12.20
2022-09-25T01:50:00.316Z,12.20
2022-09-25T01:52:03.267Z,12.10
2022-09-25T01:54:10.433Z,12.10
2022-09-25T01:56:20.872Z,12.10
2022-09-25T01:58:42.022Z,12.10
2022-09-25T02:00:47.384Z,12.10
2022-09-25T02:02:55.199Z,12.00
2022-09-25T02:05:05.979Z,12.00
2022-09-25T02:07:09.946Z,12.10
2022-09-25T02:09:21.741Z,12.00
2022-09-25T02:11:26.850Z,11.90
2022-09-25T02:13:34.792Z,11.90
2022-09-25T02:15:52.116Z,11.90
2022-09-25T02:18:15.027Z,11.90
2022-09-25T02:20:32.112Z,12.00
2022-09-25T02:22:35.216Z,12.00
2022-09-25T02:24:43.600Z,12.10
2022-09-25T02:26:45.277Z,12.20
2022-09-25T02:28:46.912Z,12.10
2022-09-25T02:30:49.331Z,12.10
2022-09-25T02:32:51.033Z,12.10
2022-09-25T02:34:52.830Z,12.20
2022-09-25T02:36:54.454Z,12.10
2022-09-25T02:38:56.258Z,12.20
2022-09-25T02:41:04.328Z,12.10
2022-09-25T02:43:16.857Z,12.10
2022-09-25T02:45:27.893Z,12.10
2022-09-25T02:47:33.047Z,12.20
2022-09-25T02:49:34.647Z,12.20
2022-09-25T02:51:51.642Z,12.30
2022-09-25T02:53:58.134Z,12.20
2022-09-25T02:56:03.124Z,12.20
2022-09-25T02:58:08.327Z,12.20
2022-09-25T03:00:10.511Z,12.20
2022-09-25T03:02:12.828Z,12.20
2022-09-25T03:04:16.559Z,12.20
2022-09-25T03:06:18.353Z,12.20
2022-09-25T03:08:39.134Z,12.20
2022-09-25T03:10:41.906Z,12.20
2022-09-25T03:12:43.560Z,12.10
2022-09-25T03:14:45.173Z,12.10
2022-09-25T03:16:56.810Z,12.10
2022-09-25T03:18:58.418Z,12.10
2022-09-25T03:21:00.071Z,12.10
2022-09-25T03:23:01.730Z,12.20
2022-09-25T03:25:05.460Z,12.20
2022-09-25T03:27:07.683Z,12.20
2022-09-25T03:29:09.288Z,12.10
2022-09-25T03:31:11.473Z,12.10
2022-09-25T03:33:13.226Z,12.20
2022-09-25T03:35:15.212Z,12.20
2022-09-25T03:37:16.857Z,12.20
2022-09-25T03:39:18.504Z,12.20
2022-09-25T03:41:21.765Z,12.20
2022-09-25T03:43:25.768Z,12.20
2022-09-25T03:45:27.334Z,12.10
2022-09-25T03:47:28.985Z,12.00
2022-09-25T03:49:30.647Z,12.00
2022-09-25T03:51:32.842Z,12.10
2022-09-25T03:53:35.121Z,12.10
2022-09-25T03:55:36.756Z,12.10
2022-09-25T03:57:39.163Z,12.10
2022-09-25T03:59:40.847Z,12.10
2022-09-25T04:01:42.628Z,12.20
2022-09-25T04:03:47.075Z,12.20
2022-09-25T04:05:48.816Z,12.10
2022-09-25T04:07:50.437Z,12.20
2022-09-25T04:09:52.050Z,12.20
2022-09-25T04:11:55.218Z,12.20
2022-09-25T04:13:57.273Z,12.20
2022-09-25T04:16:00.177Z,12.30
2022-09-25T04:18:05.936Z,12.30
2022-09-25T04:20:08.159Z,12.20
2022-09-25T04:22:09.803Z,12.20
2022-09-25T04:24:30.249Z,12.20
2022-09-25T04:26:32.082Z,12.20
2022-09-25T04:28:34.175Z,12.20
2022-09-25T04:30:35.983Z,12.10
2022-09-25T04:32:56.141Z,12.10
2022-09-25T04:34:58.272Z,12.10
2022-09-25T04:37:00.838Z,12.10
2022-09-25T04:39:02.436Z,12.10
2022-09-25T04:41:04.215Z,12.00
2022-09-25T04:43:06.831Z,11.90
2022-09-25T04:45:08.600Z,12.00
2022-09-25T04:47:10.171Z,12.00
2022-09-25T04:49:11.763Z,12.00
2022-09-25T04:51:13.398Z,12.10
2022-09-25T04:53:15.190Z,12.10
2022-09-25T04:55:22.111Z,12.00
2022-09-25T04:57:53.470Z,12.00
2022-09-25T04:59:45.663Z,12.00
2022-09-25T05:01:47.804Z,12.00
2022-09-25T05:03:50.499Z,12.00
2022-09-25T05:05:52.279Z,12.10
2022-09-25T05:07:57.337Z,12.00
2022-09-25T05:09:59.290Z,12.00
2022-09-25T05:12:01.031Z,12.00
2022-09-25T05:14:03.084Z,11.90
2022-09-25T05:16:04.806Z,11.90
2022-09-25T05:18:07.708Z,11.90
2022-09-25T05:20:09.557Z,11.90
2022-09-25T05:22:11.190Z,11.90
2022-09-25T05:24:13.497Z,11.90
2022-09-25T05:26:15.366Z,11.90
2022-09-25T05:28:16.953Z,11.90
2022-09-25T05:30:18.630Z,11.90
2022-09-25T05:32:20.253Z,11.90
2022-09-25T05:34:21.852Z,12.00
2022-09-25T05:36:23.654Z,12.00
2022-09-25T05:38:25.329Z,12.00
2022-09-25T05:40:27.122Z,12.10
2022-09-25T05:42:30.892Z,12.00
2022-09-25T05:44:32.897Z,12.10
2022-09-25T05:46:34.588Z,12.00
2022-09-25T05:48:36.498Z,12.10
2022-09-25T05:50:38.542Z,12.10
2022-09-25T05:52:40.525Z,12.10
2022-09-25T05:54:42.104Z,12.00
2022-09-25T05:56:43.670Z,12.00
2022-09-25T05:58:45.529Z,12.00
2022-09-25T06:00:47.629Z,12.00
2022-09-25T06:02:51.564Z,12.10
2022-09-25T06:04:53.228Z,12.10
2022-09-25T06:06:54.838Z,12.00
2022-09-25T06:08:56.700Z,12.00
2022-09-25T06:10:58.870Z,12.10
2022-09-25T06:13:01.406Z,12.20
2022-09-25T06:15:03.182Z,12.10
2022-09-25T06:17:04.780Z,12.20
2022-09-25T06:19:06.467Z,12.20
2022-09-25T06:21:08.963Z,12.20
2022-09-25T06:23:10.606Z,12.20
2022-09-25T06:25:12.277Z,12.20
2022-09-25T06:27:13.924Z,12.10
2022-09-25T06:29:15.676Z,12.20
2022-09-25T06:31:17.377Z,12.20
2022-09-25T06:33:19.118Z,12.20
2022-09-25T06:35:20.820Z,12.20
2022-09-25T06:37:22.486Z,12.20
2022-09-25T06:39:24.229Z,12.20
2022-09-25T06:41:25.989Z,12.20
2022-09-25T06:43:27.892Z,12.30
2022-09-25T06:45:32.395Z,12.30
2022-09-25T06:47:34.021Z,12.30
2022-09-25T06:49:35.683Z,12.40
2022-09-25T06:51:39.326Z,12.50
2022-09-25T06:53:40.998Z,12.40
2022-09-25T06:55:45.120Z,12.40
2022-09-25T06:57:46.738Z,12.40
2022-09-25T06:59:48.335Z,12.50
2022-09-25T07:01:50.064Z,12.50
2022-09-25T07:03:51.791Z,12.60
2022-09-25T07:05:53.401Z,12.60
2022-09-25T07:07:55.803Z,12.60
2022-09-25T07:09:57.418Z,12.50
2022-09-25T07:11:59.069Z,12.50
2022-09-25T07:14:01.133Z,12.60
2022-09-25T07:16:04.200Z,12.60
2022-09-25T07:18:05.791Z,12.60
2022-09-25T07:20:08.246Z,12.70
2022-09-25T07:22:11.221Z,12.70
2022-09-25T07:24:12.872Z,12.70
2022-09-25T07:26:16.007Z,12.70
2022-09-25T07:28:19.927Z,12.70
2022-09-25T07:30:21.487Z,12.90
2022-09-25T07:32:23.166Z,12.90
2022-09-25T07:34:24.744Z,13.00
2022-09-25T07:36:26.493Z,12.90
2022-09-25T07:38:28.190Z,12.90
2022-09-25T07:40:32.020Z,12.90
2022-09-25T07:42:33.674Z,12.90
2022-09-25T07:44:38.309Z,12.90
2022-09-25T07:46:43.436Z,13.00
2022-09-25T07:48:47.884Z,13.00
2022-09-25T07:50:50.118Z,13.00
2022-09-25T07:52:52.744Z,13.00
2022-09-25T07:54:54.341Z,12.90
2022-09-25T07:56:55.891Z,13.00
2022-09-25T07:58:57.441Z,13.00
2022-09-25T08:00:59.861Z,13.10
2022-09-25T08:03:02.123Z,13.10
2022-09-25T08:05:03.849Z,13.10
2022-09-25T08:07:05.695Z,13.00
2022-09-25T08:09:10.692Z,13.00
2022-09-25T08:11:14.629Z,13.00
2022-09-25T08:13:18.862Z,13.00
2022-09-25T08:15:20.504Z,13.00
2022-09-25T08:17:22.187Z,13.20
2022-09-25T08:19:24.091Z,13.20
2022-09-25T08:21:25.713Z,13.30
2022-09-25T08:23:27.946Z,13.30
2022-09-25T08:25:29.541Z,13.40
2022-09-25T08:27:31.184Z,13.50
2022-09-25T08:29:32.729Z,13.50
2022-09-25T08:31:34.674Z,13.60
2022-09-25T08:33:37.305Z,13.70
2022-09-25T08:35:41.033Z,13.70
2022-09-25T08:37:42.722Z,13.80
2022-09-25T08:39:44.296Z,13.70
2022-09-25T08:41:45.927Z,13.80
2022-09-25T08:44:05.945Z,13.90
2022-09-25T08:46:31.302Z,14.00
2022-09-25T08:49:02.379Z,13.90
2022-09-25T08:51:07.271Z,13.90
2022-09-25T08:53:14.901Z,14.00
2022-09-25T08:55:22.454Z,14.10
2022-09-25T08:57:28.095Z,14.20
2022-09-25T08:59:40.541Z,14.40
2022-09-25T09:01:44.146Z,14.40
2022-09-25T09:03:57.611Z,14.50
2022-09-25T09:06:02.311Z,14.50
2022-09-25T09:08:08.046Z,14.60
2022-09-25T09:10:24.693Z,14.80
2022-09-25T09:12:35.308Z,14.90
2022-09-25T09:14:40.322Z,14.90
2022-09-25T09:16:41.846Z,15.00
2022-09-25T09:18:43.895Z,15.10
2022-09-25T09:20:52.980Z,15.30
2022-09-25T09:22:55.613Z,15.40
2022-09-25T09:25:00.094Z,15.40
2022-09-25T09:27:20.290Z,15.30
2022-09-25T09:29:37.252Z,15.20
2022-09-25T09:31:45.832Z,15.40
2022-09-25T09:34:02.757Z,15.40
2022-09-25T09:36:16.011Z,15.60
2022-09-25T09:38:31.282Z,15.70
2022-09-25T09:40:47.482Z,15.80
2022-09-25T09:42:55.016Z,15.70
2022-09-25T09:45:02.556Z,15.40
2022-09-25T09:47:07.183Z,15.60
2022-09-25T09:49:09.265Z,15.70
2022-09-25T09:51:17.992Z,15.70
2022-09-25T09:53:41.296Z,15.70
2022-09-25T09:55:46.059Z,15.70
2022-09-25T09:57:50.081Z,15.70
2022-09-25T09:59:54.417Z,15.70
2022-09-25T10:02:00.935Z,15.50
2022-09-25T10:04:08.144Z,15.50
2022-09-25T10:06:11.064Z,15.60
2022-09-25T10:08:13.023Z,15.50
2022-09-25T10:10:16.066Z,15.40
2022-09-25T10:12:33.154Z,15.30
2022-09-25T10:14:38.167Z,15.20
2022-09-25T10:16:39.798Z,15.20
2022-09-25T10:18:52.345Z,15.20
2022-09-25T10:21:03.833Z,15.20
2022-09-25T10:23:06.193Z,15.10
2022-09-25T10:25:08.038Z,15.10
2022-09-25T10:27:41.288Z,15.20
2022-09-25T10:29:43.285Z,15.20
2022-09-25T10:31:44.893Z,15.40
2022-09-25T10:34:13.055Z,15.40
2022-09-25T10:36:15.803Z,15.50
2022-09-25T10:38:23.957Z,15.50
2022-09-25T10:40:34.034Z,15.50
2022-09-25T10:42:37.925Z,15.40
2022-09-25T10:44:39.599Z,15.30
2022-09-25T10:47:02.865Z,15.40
2022-09-25T10:49:30.683Z,15.50
2022-09-25T10:51:32.390Z,15.50
2022-09-25T10:53:34.160Z,15.40
2022-09-25T10:55:37.152Z,15.30
2022-09-25T10:57:38.865Z,15.20
2022-09-25T10:59:40.718Z,15.20
2022-09-25T11:01:43.194Z,15.10
2022-09-25T11:03:44.797Z,15.00
2022-09-25T11:05:50.294Z,15.00
2022-09-25T11:07:54.953Z,15.00
2022-09-25T11:10:00.227Z,15.10
2022-09-25T11:12:07.741Z,15.20
2022-09-25T11:14:19.237Z,15.40
2022-09-25T11:16:21.156Z,15.20
2022-09-25T11:18:35.847Z,15.10
2022-09-25T11:20:39.808Z,15.10
2022-09-25T11:22:43.287Z,15.00
2022-09-25T11:24:49.550Z,15.00
2022-09-25T11:27:11.722Z,15.10
2022-09-25T11:29:29.220Z,15.10
2022-09-25T11:31:30.804Z,15.00
2022-09-25T11:33:44.642Z,14.90
2022-09-25T11:35:54.378Z,15.00
2022-09-25T11:38:02.628Z,14.90
2022-09-25T11:40:29.204Z,14.80
2022-09-25T11:42:34.842Z,14.80
2022-09-25T11:44:54.404Z,14.70
2022-09-25T11:46:59.114Z,14.60
2022-09-25T11:49:00.928Z,14.60
2022-09-25T11:51:07.302Z,14.50
2022-09-25T11:53:33.407Z,14.40
2022-09-25T11:55:54.077Z,14.40
2022-09-25T11:58:14.844Z,14.40
2022-09-25T12:00:44.997Z,14.50
2022-09-25T12:02:49.726Z,14.50
2022-09-25T12:05:12.876Z,14.60
2022-09-25T12:07:17.518Z,14.70
2022-09-25T12:09:19.518Z,14.70
2022-09-25T12:11:21.110Z,14.80
2022-09-25T12:13:34.945Z,14.70
2022-09-25T12:15:56.132Z,14.80
2022-09-25T12:18:07.696Z,14.90
2022-09-25T12:20:15.290Z,14.80
2022-09-25T12:22:41.618Z,14.60
2022-09-25T12:24:53.911Z,14.70
2022-09-25T12:27:02.803Z,14.80
2022-09-25T12:29:16.730Z,14.90
2022-09-25T12:31:21.840Z,15.00
2022-09-25T12:33:39.558Z,15.10
2022-09-25T12:36:00.816Z,15.00
2022-09-25T12:38:05.952Z,15.00
2022-09-25T12:40:35.293Z,15.00
2022-09-25T12:42:43.280Z,15.10
2022-09-25T12:44:50.235Z,15.20
2022-09-25T12:46:51.906Z,15.30
2022-09-25T12:49:00.405Z,15.40
2022-09-25T12:51:06.266Z,15.40
2022-09-25T12:53:17.869Z,15.30
2022-09-25T12:55:23.852Z,15.30
2022-09-25T12:57:34.330Z,15.30
2022-09-25T12:59:46.422Z,15.70
2022-09-25T13:01:48.625Z,16.80
2022-09-25T13:03:50.532Z,18.30
2022-09-25T13:06:47.717Z,17.60
2022-09-25T13:09:01.109Z,17.20
2022-09-25T13:11:08.633Z,16.90
2022-09-25T13:13:13.464Z,16.80
2022-09-25T13:15:24.030Z,16.70
2022-09-25T13:17:25.680Z,16.80
2022-09-25T13:19:33.279Z,16.60
2022-09-25T13:21:36.930Z,16.60
2022-09-25T13:23:41.278Z,16.60
2022-09-25T13:25:46.651Z,16.60
2022-09-25T13:27:53.096Z,16.80
2022-09-25T13:30:01.136Z,16.90
2022-09-25T13:32:08.526Z,16.90
2022-09-25T13:34:13.609Z,16.90
2022-09-25T13:36:23.165Z,16.90
2022-09-25T13:38:43.610Z,16.70
2022-09-25T13:40:52.588Z,16.50
2022-09-25T13:43:14.471Z,16.20
2022-09-25T13:45:26.076Z,16.10
2022-09-25T13:47:27.895Z,15.90
2022-09-25T13:49:33.935Z,15.80
2022-09-25T13:51:35.804Z,15.70
2022-09-25T13:54:01.014Z,15.80
2022-09-25T13:56:02.560Z,15.80
2022-09-25T13:58:04.192Z,15.70
2022-09-25T14:00:15.280Z,15.60
2022-09-25T14:02:33.011Z,15.60
2022-09-25T14:04:39.174Z,15.70
2022-09-25T14:06:45.714Z,15.80
2022-09-25T14:08:48.048Z,15.80
2022-09-25T14:10:50.991Z,16.00
2022-09-25T14:12:55.163Z,16.00
2022-09-25T14:14:59.309Z,16.50
2022-09-25T14:17:02.305Z,17.10
2022-09-25T14:19:05.323Z,18.10
2022-09-25T14:21:12.486Z,17.80
2022-09-25T14:23:43.561Z,17.20
2022-09-25T14:25:47.722Z,16.60
2022-09-25T14:27:52.893Z,16.60
2022-09-25T14:30:05.700Z,16.40
2022-09-25T14:32:10.649Z,16.10
2022-09-25T14:34:30.942Z,16.20
2022-09-25T14:36:52.144Z,16.10
2022-09-25T14:38:59.387Z,16.00
2022-09-25T14:41:06.764Z,16.00
2022-09-25T14:43:10.583Z,16.00
2022-09-25T14:45:18.575Z,16.00
2022-09-25T14:47:20.849Z,16.10
2022-09-25T14:49:25.392Z,16.10
2022-09-25T14:51:33.673Z,16.10
2022-09-25T14:53:38.754Z,16.20
2022-09-25T14:55:51.651Z,16.20
2022-09-25T14:58:05.948Z,16.10
2022-09-25T15:00:22.909Z,16.00
2022-09-25T15:02:42.785Z,16.30
2022-09-25T15:04:44.868Z,17.60
2022-09-25T15:06:46.790Z,17.90
2022-09-25T15:08:48.434Z,17.70
2022-09-25T15:11:00.925Z,18.80
2022-09-25T15:13:05.794Z,19.80
2022-09-25T15:15:11.852Z,19.80
2022-09-25T15:17:22.393Z,19.00
2022-09-25T15:19:33.343Z,18.40
2022-09-25T15:21:41.024Z,17.50
2022-09-25T15:23:44.014Z,17.20
2022-09-25T15:25:48.412Z,16.90
2022-09-25T15:27:50.032Z,16.90
2022-09-25T15:29:54.965Z,17.50
2022-09-25T15:31:56.952Z,17.70
2022-09-25T15:34:11.313Z,17.50
2022-09-25T15:36:15.954Z,17.50
2022-09-25T15:38:18.346Z,18.10
2022-09-25T15:40:28.745Z,18.40
2022-09-25T15:42:30.471Z,17.60
2022-09-25T15:44:33.060Z,17.70
2022-09-25T15:46:39.580Z,17.10
2022-09-25T15:48:52.667Z,16.70
2022-09-25T15:50:55.004Z,16.70
2022-09-25T15:52:59.601Z,17.20
2022-09-25T15:55:16.277Z,18.30
2022-09-25T15:57:28.444Z,19.10
2022-09-25T15:59:36.398Z,19.40
2022-09-25T16:02:02.853Z,19.10
2022-09-25T16:04:25.547Z,19.30
2022-09-25T16:06:33.038Z,18.90
2022-09-25T16:08:36.609Z,18.10
2022-09-25T16:10:38.405Z,17.50
2022-09-25T16:12:40.762Z,17.90
2022-09-25T16:14:45.205Z,18.10
2022-09-25T16:16:47.927Z,17.70
2022-09-25T16:18:51.207Z,17.10
2022-09-25T16:21:10.188Z,16.60
2022-09-25T16:23:29.002Z,16.30
2022-09-25T16:25:38.028Z,16.00
2022-09-25T16:27:43.653Z,15.90
2022-09-25T16:29:45.348Z,15.90
2022-09-25T16:31:47.246Z,15.90
2022-09-25T16:33:50.654Z,15.90
2022-09-25T16:36:12.619Z,15.80
2022-09-25T16:38:46.659Z,15.70
2022-09-25T16:41:02.173Z,15.60
2022-09-25T16:43:04.488Z,15.40
2022-09-25T16:45:14.933Z,15.40
2022-09-25T16:47:20.036Z,15.30
2022-09-25T16:49:23.445Z,15.10
2022-09-25T16:51:29.014Z,15.10
2022-09-25T16:53:30.843Z,15.10
2022-09-25T16:55:33.357Z,15.00
2022-09-25T16:57:35.393Z,14.90
2022-09-25T16:59:37.006Z,14.80
2022-09-25T17:01:39.532Z,14.80
2022-09-25T17:03:50.280Z,14.70
2022-09-25T17:05:52.003Z,14.60
2022-09-25T17:07:57.355Z,14.50
2022-09-25T17:10:01.190Z,14.50
2022-09-25T17:12:07.377Z,14.40
2022-09-25T17:14:16.739Z,14.40
2022-09-25T17:16:18.606Z,14.30
2022-09-25T17:18:21.271Z,14.30
2022-09-25T17:20:26.282Z,14.30
2022-09-25T17:22:31.549Z,14.20
2022-09-25T17:24:41.928Z,14.20
2022-09-25T17:26:44.158Z,14.20
2022-09-25T17:28:46.373Z,14.10
2022-09-25T17:30:50.393Z,14.10
2022-09-25T17:32:52.497Z,14.10
2022-09-25T17:34:59.593Z,14.10
2022-09-25T17:37:31.614Z,14.10
2022-09-25T17:39:41.201Z,14.10
2022-09-25T17:41:59.745Z,14.10
2022-09-25T17:44:05.601Z,14.10
2022-09-25T17:46:08.593Z,14.10
2022-09-25T17:48:11.070Z,14.10
2022-09-25T17:50:12.725Z,14.10
2022-09-25T17:52:15.656Z,14.10
2022-09-25T17:54:24.442Z,14.10
2022-09-25T17:56:29.539Z,14.10
2022-09-25T17:58:32.186Z,14.00
2022-09-25T18:00:33.955Z,14.00
2022-09-25T18:02:36.087Z,13.90
2022-09-25T18:04:37.928Z,13.80
2022-09-25T18:06:43.411Z,13.80
2022-09-25T18:08:45.938Z,13.80
2022-09-25T18:10:48.942Z,13.70
2022-09-25T18:12:50.627Z,13.60
2022-09-25T18:14:55.792Z,13.50
2022-09-25T18:16:57.540Z,13.50
2022-09-25T18:19:18.196Z,13.50
2022-09-25T18:21:38.886Z,13.40
2022-09-25T18:23:40.595Z,13.30
2022-09-25T18:25:42.480Z,13.30
2022-09-25T18:27:44.102Z,13.30
2022-09-25T18:29:47.399Z,13.30
2022-09-25T18:31:49.277Z,13.30
2022-09-25T18:33:54.731Z,13.40
2022-09-25T18:35:56.432Z,13.40
2022-09-25T18:37:59.090Z,13.40
2022-09-25T18:40:03.736Z,13.50
2022-09-25T18:42:05.687Z,13.50
2022-09-25T18:44:07.580Z,13.50
2022-09-25T18:46:10.740Z,13.50
2022-09-25T18:48:12.386Z,13.50
2022-09-25T18:50:19.541Z,13.50
2022-09-25T18:52:22.209Z,13.50
2022-09-25T18:54:23.808Z,13.50
2022-09-25T18:56:27.102Z,13.50
2022-09-25T18:58:29.272Z,13.50
2022-09-25T19:00:34.444Z,13.60
2022-09-25T19:02:39.246Z,13.50
2022-09-25T19:04:41.309Z,13.50
2022-09-25T19:06:43.311Z,13.50
2022-09-25T19:08:50.801Z,13.40
2022-09-25T19:10:53.055Z,13.40
2022-09-25T19:12:54.757Z,13.30
2022-09-25T19:14:56.481Z,13.30
2022-09-25T19:16:58.448Z,13.30
2022-09-25T19:19:00.388Z,13.20
2022-09-25T19:21:05.791Z,13.30
2022-09-25T19:23:08.052Z,13.30
2022-09-25T19:25:11.319Z,13.40
2022-09-25T19:27:16.969Z,13.40
2022-09-25T19:29:21.732Z,13.40
2022-09-25T19:31:25.742Z,13.30
2022-09-25T19:33:38.664Z,13.30
2022-09-25T19:35:42.979Z,13.30
2022-09-25T19:37:53.891Z,13.30
2022-09-25T19:40:14.749Z,13.30
2022-09-25T19:42:19.147Z,13.30
2022-09-25T19:44:21.320Z,13.30
2022-09-25T19:46:23.946Z,13.30
2022-09-25T19:48:25.769Z,13.30
2022-09-25T19:50:27.454Z,13.30
2022-09-25T19:52:29.303Z,13.20
2022-09-25T19:54:31.022Z,13.20
2022-09-25T19:56:33.687Z,13.20
2022-09-25T19:58:38.303Z,13.10
2022-09-25T20:00:40.543Z,13.00
2022-09-25T20:02:49.131Z,13.10
2022-09-25T20:04:53.244Z,13.10
2022-09-25T20:06:58.353Z,13.10
2022-09-25T20:09:03.631Z,13.20
2022-09-25T20:11:51.043Z,13.10
2022-09-25T20:14:02.355Z,13.10
2022-09-25T20:16:10.696Z,13.10
2022-09-25T20:18:12.872Z,13.00
2022-09-25T20:20:16.014Z,13.10
2022-09-25T20:22:20.611Z,13.00
2022-09-25T20:24:31.229Z,13.00
2022-09-25T20:26:44.462Z,12.90
2022-09-25T20:30:00.093Z,13.00
2022-09-25T20:32:07.246Z,13.00
2022-09-25T20:34:34.566Z,13.10
2022-09-25T20:36:51.974Z,13.10
2022-09-25T20:38:55.345Z,13.00
2022-09-25T20:45:09.382Z,13.00
2022-09-25T20:47:50.428Z,12.90
2022-09-25T20:49:52.042Z,12.90
2022-09-25T20:51:53.569Z,12.80
2022-09-25T20:53:57.282Z,12.70
2022-09-25T20:56:09.175Z,12.80
2022-09-25T20:58:10.767Z,12.60
2022-09-25T21:00:18.295Z,12.60
2022-09-25T21:02:20.796Z,12.60
2022-09-25T21:04:22.425Z,12.60
2022-09-25T21:06:24.955Z,12.50
2022-09-25T21:08:27.739Z,12.50
2022-09-25T21:10:29.415Z,12.50
2022-09-25T21:12:30.992Z,12.50
2022-09-25T21:14:33.642Z,12.50
2022-09-25T21:16:35.524Z,12.50
2022-09-25T21:18:37.734Z,12.40
2022-09-25T21:20:40.605Z,12.50
2022-09-25T21:22:42.234Z,12.50
2022-09-25T21:24:43.828Z,12.50
2022-09-25T21:26:45.952Z,12.50
2022-09-25T21:28:48.619Z,12.50
2022-09-25T21:30:50.242Z,12.40
2022-09-25T21:32:52.003Z,12.40
2022-09-25T21:34:54.120Z,12.40
2022-09-25T21:36:55.685Z,12.50
2022-09-25T21:38:58.436Z,12.40
2022-09-25T21:41:01.514Z,12.40
2022-09-25T21:43:03.183Z,12.40
2022-09-25T21:45:07.575Z,12.40
2022-09-25T21:47:09.158Z,12.40
2022-09-25T21:49:14.956Z,12.50
2022-09-25T21:51:17.219Z,12.40
2022-09-25T21:53:18.859Z,12.50
2022-09-25T21:55:20.736Z,12.50
2022-09-25T21:57:22.631Z,12.50
2022-09-25T21:59:24.200Z,12.50
2022-09-25T22:01:30.112Z,12.40
2022-09-25T22:03:35.869Z,12.40
2022-09-25T22:05:37.479Z,12.40
2022-09-25T22:07:39.068Z,12.40
2022-09-25T22:09:40.794Z,12.40
2022-09-25T22:11:43.236Z,12.40
2022-09-25T22:13:46.135Z,12.40
2022-09-25T22:15:47.726Z,12.40
2022-09-25T22:17:49.300Z,12.40
2022-09-25T22:19:50.855Z,12.30
2022-09-25T22:21:53.449Z,12.30
2022-09-25T22:23:55.359Z,12.30
2022-09-25T22:25:59.880Z,12.30
2022-09-25T22:28:01.619Z,12.30
2022-09-25T22:30:03.344Z,12.30
2022-09-25T22:32:04.957Z,12.30
2022-09-25T22:34:07.690Z,12.20
2022-09-25T22:36:10.232Z,12.30
2022-09-25T22:38:11.867Z,12.30
2022-09-25T22:40:13.549Z,12.30
2022-09-25T22:42:15.234Z,12.30
2022-09-25T22:44:17.131Z,12.30
2022-09-25T22:46:19.863Z,12.30
2022-09-25T22:48:21.521Z,12.20
2022-09-25T22:50:23.269Z,12.20
2022-09-25T22:52:24.915Z,12.20
2022-09-25T22:54:26.553Z,12.20
2022-09-25T22:56:32.323Z,12.20
2022-09-25T22:58:34.284Z,12.20
2022-09-25T23:00:35.871Z,12.20
2022-09-25T23:02:37.482Z,12.20
2022-09-25T23:04:39.057Z,12.20
2022-09-25T23:06:40.647Z,12.20
2022-09-25T23:08:42.299Z,12.20
2022-09-25T23:11:06.307Z,12.20
2022-09-25T23:13:05.718Z,12.20
2022-09-25T23:15:07.781Z,12.10
2022-09-25T23:17:09.564Z,12.10
2022-09-25T23:19:11.393Z,12.10
2022-09-25T23:21:13.322Z,12.10
2022-09-25T23:23:14.923Z,12.10
2022-09-25T23:25:17.644Z,12.10
2022-09-25T23:27:19.229Z,12.10
2022-09-25T23:29:21.469Z,12.00
2022-09-25T23:31:23.307Z,12.00
2022-09-25T23:33:24.901Z,11.90
2022-09-25T23:35:26.513Z,11.90
2022-09-25T23:37:28.686Z,12.00
2022-09-25T23:39:30.320Z,12.00
2022-09-25T23:41:33.244Z,11.90
2022-09-25T23:43:34.831Z,11.90
2022-09-25T23:45:36.429Z,11.90
2022-09-25T23:47:38.031Z,11.90
2022-09-25T23:49:40.052Z,11.90
2022-09-25T23:51:41.793Z,11.90
2022-09-25T23:53:44.053Z,12.00
2022-09-25T23:55:45.762Z,11.90
2022-09-25T23:57:47.360Z,11.90
2022-09-25T23:59:48.931Z,11.80
